sensor_id;sensor_type;location;lat;lon;timestamp;P1;durP1;ratioP1;P2;durP2;ratioP2
67747;SDS011;54543;50.712;6.070;2023-03-11T00:01:51;4.25;;;1.20;;
67747;SDS011;54543;50.712;6.070;2023-03-11T00:04:16;3.08;;;1.30;;
67747;SDS011;54543;50.712;6.070;2023-03-11T00:06:42;5.45;;;1.40;;
67747;SDS011;54543;50.712;6.070;2023-03-11T00:09:07;8.65;;;1.65;;
67747;SDS011;54543;50.712;6.070;2023-03-11T00:11:33;4.45;;;1.42;;
67747;SDS011;54543;50.712;6.070;2023-03-11T00:13:59;3.85;;;1.70;;
67747;SDS011;54543;50.712;6.070;2023-03-11T00:16:24;2.58;;;1.50;;
67747;SDS011;54543;50.712;6.070;2023-03-11T00:18:50;4.35;;;1.40;;
67747;SDS011;54543;50.712;6.070;2023-03-11T00:21:17;4.00;;;1.30;;
67747;SDS011;54543;50.712;6.070;2023-03-11T00:23:43;4.68;;;1.45;;
67747;SDS011;54543;50.712;6.070;2023-03-11T00:26:09;2.80;;;1.60;;
67747;SDS011;54543;50.712;6.070;2023-03-11T00:28:34;6.22;;;1.40;;
67747;SDS011;54543;50.712;6.070;2023-03-11T00:31:00;4.10;;;1.42;;
67747;SDS011;54543;50.712;6.070;2023-03-11T00:33:26;4.47;;;1.40;;
67747;SDS011;54543;50.712;6.070;2023-03-11T00:35:51;2.25;;;1.42;;
67747;SDS011;54543;50.712;6.070;2023-03-11T00:38:17;6.00;;;1.67;;
67747;SDS011;54543;50.712;6.070;2023-03-11T00:40:43;3.47;;;1.00;;
67747;SDS011;54543;50.712;6.070;2023-03-11T00:43:10;1.80;;;1.08;;
67747;SDS011;54543;50.712;6.070;2023-03-11T00:45:36;1.98;;;1.00;;
67747;SDS011;54543;50.712;6.070;2023-03-11T00:48:02;2.28;;;1.10;;
67747;SDS011;54543;50.712;6.070;2023-03-11T00:50:29;1.75;;;1.10;;
67747;SDS011;54543;50.712;6.070;2023-03-11T00:52:57;1.30;;;0.93;;
67747;SDS011;54543;50.712;6.070;2023-03-11T00:55:24;2.97;;;1.10;;
67747;SDS011;54543;50.712;6.070;2023-03-11T00:58:05;4.82;;;1.40;;
67747;SDS011;54543;50.712;6.070;2023-03-11T01:00:31;2.85;;;1.00;;
67747;SDS011;54543;50.712;6.070;2023-03-11T01:02:57;2.63;;;1.38;;
67747;SDS011;54543;50.712;6.070;2023-03-11T01:05:25;3.67;;;1.67;;
67747;SDS011;54543;50.712;6.070;2023-03-11T01:07:55;3.28;;;1.63;;
67747;SDS011;54543;50.712;6.070;2023-03-11T01:10:21;3.50;;;1.50;;
67747;SDS011;54543;50.712;6.070;2023-03-11T01:12:48;4.18;;;1.27;;
67747;SDS011;54543;50.712;6.070;2023-03-11T01:15:15;3.10;;;1.30;;
67747;SDS011;54543;50.712;6.070;2023-03-11T01:17:44;2.80;;;1.00;;
67747;SDS011;54543;50.712;6.070;2023-03-11T01:20:10;2.15;;;1.15;;
67747;SDS011;54543;50.712;6.070;2023-03-11T01:22:36;1.23;;;0.80;;
67747;SDS011;54543;50.712;6.070;2023-03-11T01:25:02;1.02;;;0.90;;
67747;SDS011;54543;50.712;6.070;2023-03-11T01:27:28;2.97;;;0.77;;
67747;SDS011;54543;50.712;6.070;2023-03-11T01:29:55;1.85;;;1.00;;
67747;SDS011;54543;50.712;6.070;2023-03-11T01:32:20;0.85;;;0.80;;
67747;SDS011;54543;50.712;6.070;2023-03-11T01:34:46;1.98;;;1.10;;
67747;SDS011;54543;50.712;6.070;2023-03-11T01:37:11;2.97;;;1.20;;
67747;SDS011;54543;50.712;6.070;2023-03-11T01:39:36;2.28;;;0.95;;
67747;SDS011;54543;50.712;6.070;2023-03-11T01:42:02;1.23;;;1.00;;
67747;SDS011;54543;50.712;6.070;2023-03-11T01:44:28;3.35;;;1.42;;
67747;SDS011;54543;50.712;6.070;2023-03-11T01:49:22;2.85;;;1.15;;
67747;SDS011;54543;50.712;6.070;2023-03-11T01:51:48;2.90;;;1.13;;
67747;SDS011;54543;50.712;6.070;2023-03-11T01:54:24;2.17;;;1.30;;
67747;SDS011;54543;50.712;6.070;2023-03-11T01:56:52;4.38;;;1.10;;
67747;SDS011;54543;50.712;6.070;2023-03-11T01:59:23;2.30;;;1.13;;
67747;SDS011;54543;50.712;6.070;2023-03-11T02:04:30;4.50;;;1.30;;
67747;SDS011;54543;50.712;6.070;2023-03-11T02:06:58;3.13;;;1.38;;
67747;SDS011;54543;50.712;6.070;2023-03-11T02:09:25;2.28;;;1.20;;
67747;SDS011;54543;50.712;6.070;2023-03-11T02:11:51;2.70;;;1.50;;
67747;SDS011;54543;50.712;6.070;2023-03-11T02:14:17;1.30;;;1.00;;
67747;SDS011;54543;50.712;6.070;2023-03-11T02:16:43;1.98;;;1.38;;
67747;SDS011;54543;50.712;6.070;2023-03-11T02:19:16;3.85;;;1.52;;
67747;SDS011;54543;50.712;6.070;2023-03-11T02:21:49;1.45;;;1.30;;
67747;SDS011;54543;50.712;6.070;2023-03-11T02:24:34;3.05;;;1.67;;
67747;SDS011;54543;50.712;6.070;2023-03-11T02:27:08;1.88;;;1.23;;
67747;SDS011;54543;50.712;6.070;2023-03-11T02:29:36;2.85;;;1.27;;
67747;SDS011;54543;50.712;6.070;2023-03-11T02:32:06;1.50;;;1.20;;
67747;SDS011;54543;50.712;6.070;2023-03-11T02:34:35;2.88;;;1.45;;
67747;SDS011;54543;50.712;6.070;2023-03-11T02:37:03;3.15;;;1.58;;
67747;SDS011;54543;50.712;6.070;2023-03-11T02:39:38;3.55;;;1.30;;
67747;SDS011;54543;50.712;6.070;2023-03-11T02:42:12;4.18;;;1.10;;
67747;SDS011;54543;50.712;6.070;2023-03-11T02:44:40;3.15;;;1.20;;
67747;SDS011;54543;50.712;6.070;2023-03-11T02:47:07;4.55;;;1.70;;
67747;SDS011;54543;50.712;6.070;2023-03-11T02:49:33;5.38;;;1.60;;
67747;SDS011;54543;50.712;6.070;2023-03-11T02:52:00;2.50;;;1.40;;
67747;SDS011;54543;50.712;6.070;2023-03-11T02:54:26;2.45;;;1.77;;
67747;SDS011;54543;50.712;6.070;2023-03-11T02:56:51;3.00;;;1.50;;
67747;SDS011;54543;50.712;6.070;2023-03-11T02:59:17;1.95;;;1.40;;
67747;SDS011;54543;50.712;6.070;2023-03-11T03:01:42;3.13;;;1.40;;
67747;SDS011;54543;50.712;6.070;2023-03-11T03:04:08;2.88;;;1.30;;
67747;SDS011;54543;50.712;6.070;2023-03-11T03:06:33;4.85;;;1.52;;
67747;SDS011;54543;50.712;6.070;2023-03-11T03:08:59;3.30;;;1.58;;
67747;SDS011;54543;50.712;6.070;2023-03-11T03:11:25;7.05;;;1.40;;
67747;SDS011;54543;50.712;6.070;2023-03-11T03:13:50;1.58;;;1.27;;
67747;SDS011;54543;50.712;6.070;2023-03-11T03:16:16;3.33;;;1.98;;
67747;SDS011;54543;50.712;6.070;2023-03-11T03:18:41;4.00;;;1.65;;
67747;SDS011;54543;50.712;6.070;2023-03-11T03:21:07;4.10;;;1.60;;
67747;SDS011;54543;50.712;6.070;2023-03-11T03:23:32;2.65;;;1.58;;
67747;SDS011;54543;50.712;6.070;2023-03-11T03:25:59;3.40;;;1.65;;
67747;SDS011;54543;50.712;6.070;2023-03-11T03:28:26;3.90;;;1.80;;
67747;SDS011;54543;50.712;6.070;2023-03-11T03:30:52;2.42;;;1.42;;
67747;SDS011;54543;50.712;6.070;2023-03-11T03:33:18;3.97;;;1.73;;
67747;SDS011;54543;50.712;6.070;2023-03-11T03:35:43;3.83;;;1.52;;
67747;SDS011;54543;50.712;6.070;2023-03-11T03:38:09;1.92;;;1.30;;
67747;SDS011;54543;50.712;6.070;2023-03-11T03:40:36;2.40;;;1.25;;
67747;SDS011;54543;50.712;6.070;2023-03-11T03:43:02;2.70;;;1.33;;
67747;SDS011;54543;50.712;6.070;2023-03-11T03:45:27;2.67;;;1.30;;
67747;SDS011;54543;50.712;6.070;2023-03-11T03:47:53;2.90;;;1.30;;
67747;SDS011;54543;50.712;6.070;2023-03-11T03:50:18;3.90;;;1.83;;
67747;SDS011;54543;50.712;6.070;2023-03-11T03:52:44;3.17;;;1.58;;
67747;SDS011;54543;50.712;6.070;2023-03-11T03:55:10;3.08;;;1.27;;
67747;SDS011;54543;50.712;6.070;2023-03-11T03:57:35;3.35;;;1.20;;
67747;SDS011;54543;50.712;6.070;2023-03-11T04:00:01;2.58;;;1.20;;
67747;SDS011;54543;50.712;6.070;2023-03-11T04:02:28;3.03;;;1.48;;
67747;SDS011;54543;50.712;6.070;2023-03-11T04:04:54;1.52;;;1.17;;
67747;SDS011;54543;50.712;6.070;2023-03-11T04:07:20;1.52;;;1.33;;
67747;SDS011;54543;50.712;6.070;2023-03-11T04:09:46;1.98;;;1.23;;
67747;SDS011;54543;50.712;6.070;2023-03-11T04:12:15;3.83;;;1.40;;
67747;SDS011;54543;50.712;6.070;2023-03-11T04:14:41;2.20;;;1.27;;
67747;SDS011;54543;50.712;6.070;2023-03-11T04:17:09;1.83;;;1.27;;
67747;SDS011;54543;50.712;6.070;2023-03-11T04:19:36;1.75;;;1.10;;
67747;SDS011;54543;50.712;6.070;2023-03-11T04:22:02;3.17;;;1.40;;
67747;SDS011;54543;50.712;6.070;2023-03-11T04:24:28;2.35;;;1.40;;
67747;SDS011;54543;50.712;6.070;2023-03-11T04:26:53;2.95;;;1.48;;
67747;SDS011;54543;50.712;6.070;2023-03-11T04:29:19;3.13;;;1.30;;
67747;SDS011;54543;50.712;6.070;2023-03-11T04:31:44;2.45;;;1.40;;
67747;SDS011;54543;50.712;6.070;2023-03-11T04:34:09;2.97;;;1.55;;
67747;SDS011;54543;50.712;6.070;2023-03-11T04:36:35;2.00;;;1.20;;
67747;SDS011;54543;50.712;6.070;2023-03-11T04:39:01;2.33;;;1.40;;
67747;SDS011;54543;50.712;6.070;2023-03-11T04:41:26;5.78;;;1.83;;
67747;SDS011;54543;50.712;6.070;2023-03-11T04:43:52;4.05;;;1.75;;
67747;SDS011;54543;50.712;6.070;2023-03-11T04:46:17;1.83;;;1.48;;
67747;SDS011;54543;50.712;6.070;2023-03-11T04:48:43;2.88;;;1.60;;
67747;SDS011;54543;50.712;6.070;2023-03-11T04:51:08;1.80;;;1.38;;
67747;SDS011;54543;50.712;6.070;2023-03-11T04:53:34;1.77;;;1.15;;
67747;SDS011;54543;50.712;6.070;2023-03-11T04:55:59;4.57;;;1.67;;
67747;SDS011;54543;50.712;6.070;2023-03-11T04:58:25;2.63;;;1.70;;
67747;SDS011;54543;50.712;6.070;2023-03-11T05:00:51;3.75;;;1.48;;
67747;SDS011;54543;50.712;6.070;2023-03-11T05:03:17;2.55;;;1.60;;
67747;SDS011;54543;50.712;6.070;2023-03-11T05:05:43;2.25;;;1.35;;
67747;SDS011;54543;50.712;6.070;2023-03-11T05:08:09;2.28;;;1.60;;
67747;SDS011;54543;50.712;6.070;2023-03-11T05:10:35;3.83;;;1.60;;
67747;SDS011;54543;50.712;6.070;2023-03-11T05:13:00;2.55;;;1.60;;
67747;SDS011;54543;50.712;6.070;2023-03-11T05:15:26;2.42;;;1.60;;
67747;SDS011;54543;50.712;6.070;2023-03-11T05:17:53;6.43;;;2.42;;
67747;SDS011;54543;50.712;6.070;2023-03-11T05:20:18;4.70;;;1.60;;
67747;SDS011;54543;50.712;6.070;2023-03-11T05:22:44;2.97;;;1.45;;
67747;SDS011;54543;50.712;6.070;2023-03-11T05:25:10;3.83;;;1.48;;
67747;SDS011;54543;50.712;6.070;2023-03-11T05:27:35;2.40;;;1.70;;
67747;SDS011;54543;50.712;6.070;2023-03-11T05:30:01;5.63;;;1.80;;
67747;SDS011;54543;50.712;6.070;2023-03-11T05:32:26;3.38;;;1.77;;
67747;SDS011;54543;50.712;6.070;2023-03-11T05:34:52;9.65;;;2.05;;
67747;SDS011;54543;50.712;6.070;2023-03-11T05:37:17;3.30;;;1.80;;
67747;SDS011;54543;50.712;6.070;2023-03-11T05:39:43;3.70;;;1.83;;
67747;SDS011;54543;50.712;6.070;2023-03-11T05:42:08;3.20;;;1.85;;
67747;SDS011;54543;50.712;6.070;2023-03-11T05:44:34;3.92;;;1.85;;
67747;SDS011;54543;50.712;6.070;2023-03-11T05:46:59;3.42;;;1.75;;
67747;SDS011;54543;50.712;6.070;2023-03-11T05:49:25;2.72;;;1.60;;
67747;SDS011;54543;50.712;6.070;2023-03-11T05:51:51;2.22;;;1.52;;
67747;SDS011;54543;50.712;6.070;2023-03-11T05:54:18;2.90;;;1.88;;
67747;SDS011;54543;50.712;6.070;2023-03-11T05:56:44;3.53;;;2.22;;
67747;SDS011;54543;50.712;6.070;2023-03-11T05:59:11;4.90;;;1.73;;
67747;SDS011;54543;50.712;6.070;2023-03-11T06:01:37;2.60;;;1.50;;
67747;SDS011;54543;50.712;6.070;2023-03-11T06:04:03;2.67;;;1.63;;
67747;SDS011;54543;50.712;6.070;2023-03-11T06:06:29;3.08;;;1.83;;
67747;SDS011;54543;50.712;6.070;2023-03-11T06:08:55;3.95;;;2.10;;
67747;SDS011;54543;50.712;6.070;2023-03-11T06:11:20;4.85;;;2.20;;
67747;SDS011;54543;50.712;6.070;2023-03-11T06:13:52;3.78;;;2.13;;
67747;SDS011;54543;50.712;6.070;2023-03-11T06:16:19;3.22;;;2.00;;
67747;SDS011;54543;50.712;6.070;2023-03-11T06:18:45;5.03;;;2.20;;
67747;SDS011;54543;50.712;6.070;2023-03-11T06:21:20;3.80;;;2.13;;
67747;SDS011;54543;50.712;6.070;2023-03-11T06:23:48;5.28;;;2.25;;
67747;SDS011;54543;50.712;6.070;2023-03-11T06:26:15;2.53;;;2.05;;
67747;SDS011;54543;50.712;6.070;2023-03-11T06:28:42;7.03;;;2.10;;
67747;SDS011;54543;50.712;6.070;2023-03-11T06:31:10;4.07;;;2.30;;
67747;SDS011;54543;50.712;6.070;2023-03-11T06:33:38;3.10;;;2.00;;
67747;SDS011;54543;50.712;6.070;2023-03-11T06:36:04;3.22;;;2.00;;
67747;SDS011;54543;50.712;6.070;2023-03-11T06:38:30;6.60;;;2.80;;
67747;SDS011;54543;50.712;6.070;2023-03-11T06:41:03;5.15;;;2.83;;
67747;SDS011;54543;50.712;6.070;2023-03-11T06:43:30;5.63;;;2.45;;
67747;SDS011;54543;50.712;6.070;2023-03-11T06:45:56;6.15;;;2.35;;
67747;SDS011;54543;50.712;6.070;2023-03-11T06:48:22;4.80;;;2.13;;
67747;SDS011;54543;50.712;6.070;2023-03-11T06:50:55;4.28;;;2.33;;
67747;SDS011;54543;50.712;6.070;2023-03-11T06:53:21;3.58;;;2.25;;
67747;SDS011;54543;50.712;6.070;2023-03-11T06:55:57;4.18;;;2.17;;
67747;SDS011;54543;50.712;6.070;2023-03-11T06:58:27;3.20;;;1.90;;
67747;SDS011;54543;50.712;6.070;2023-03-11T07:00:53;5.18;;;2.30;;
67747;SDS011;54543;50.712;6.070;2023-03-11T07:03:18;4.40;;;2.35;;
67747;SDS011;54543;50.712;6.070;2023-03-11T07:05:44;3.42;;;2.00;;
67747;SDS011;54543;50.712;6.070;2023-03-11T07:08:10;4.70;;;2.13;;
67747;SDS011;54543;50.712;6.070;2023-03-11T07:10:35;4.28;;;2.10;;
67747;SDS011;54543;50.712;6.070;2023-03-11T07:13:01;6.82;;;2.65;;
67747;SDS011;54543;50.712;6.070;2023-03-11T07:15:27;3.88;;;2.22;;
67747;SDS011;54543;50.712;6.070;2023-03-11T07:17:53;8.48;;;4.40;;
67747;SDS011;54543;50.712;6.070;2023-03-11T07:20:18;5.30;;;3.10;;
67747;SDS011;54543;50.712;6.070;2023-03-11T07:22:44;5.93;;;2.90;;
67747;SDS011;54543;50.712;6.070;2023-03-11T07:25:09;5.53;;;2.80;;
67747;SDS011;54543;50.712;6.070;2023-03-11T07:27:35;4.05;;;2.30;;
67747;SDS011;54543;50.712;6.070;2023-03-11T07:30:01;7.03;;;3.30;;
67747;SDS011;54543;50.712;6.070;2023-03-11T07:32:27;4.35;;;3.30;;
67747;SDS011;54543;50.712;6.070;2023-03-11T07:34:52;5.50;;;3.30;;
67747;SDS011;54543;50.712;6.070;2023-03-11T07:37:18;8.25;;;4.22;;
67747;SDS011;54543;50.712;6.070;2023-03-11T07:39:43;6.43;;;4.10;;
67747;SDS011;54543;50.712;6.070;2023-03-11T07:42:09;5.97;;;3.47;;
67747;SDS011;54543;50.712;6.070;2023-03-11T07:44:35;6.40;;;3.60;;
67747;SDS011;54543;50.712;6.070;2023-03-11T07:47:01;6.80;;;2.95;;
67747;SDS011;54543;50.712;6.070;2023-03-11T07:49:27;5.45;;;2.60;;
67747;SDS011;54543;50.712;6.070;2023-03-11T07:51:53;9.00;;;3.92;;
67747;SDS011;54543;50.712;6.070;2023-03-11T07:54:18;4.38;;;2.65;;
67747;SDS011;54543;50.712;6.070;2023-03-11T07:56:44;6.22;;;3.20;;
67747;SDS011;54543;50.712;6.070;2023-03-11T07:59:09;6.03;;;3.03;;
67747;SDS011;54543;50.712;6.070;2023-03-11T08:01:35;7.07;;;3.75;;
67747;SDS011;54543;50.712;6.070;2023-03-11T08:04:02;6.25;;;3.55;;
67747;SDS011;54543;50.712;6.070;2023-03-11T08:06:30;5.50;;;3.20;;
67747;SDS011;54543;50.712;6.070;2023-03-11T08:09:01;6.18;;;3.50;;
67747;SDS011;54543;50.712;6.070;2023-03-11T08:11:29;5.93;;;3.30;;
67747;SDS011;54543;50.712;6.070;2023-03-11T08:13:55;4.55;;;2.53;;
67747;SDS011;54543;50.712;6.070;2023-03-11T08:16:22;4.40;;;2.25;;
67747;SDS011;54543;50.712;6.070;2023-03-11T08:18:49;47.95;;;23.83;;
67747;SDS011;54543;50.712;6.070;2023-03-11T08:21:17;27.92;;;17.75;;
67747;SDS011;54543;50.712;6.070;2023-03-11T08:23:44;21.50;;;13.13;;
67747;SDS011;54543;50.712;6.070;2023-03-11T08:26:11;12.30;;;8.13;;
67747;SDS011;54543;50.712;6.070;2023-03-11T08:28:38;10.95;;;6.30;;
67747;SDS011;54543;50.712;6.070;2023-03-11T08:34:00;7.82;;;4.25;;
67747;SDS011;54543;50.712;6.070;2023-03-11T08:36:28;6.78;;;3.78;;
67747;SDS011;54543;50.712;6.070;2023-03-11T08:38:54;6.45;;;3.38;;
67747;SDS011;54543;50.712;6.070;2023-03-11T08:41:20;8.18;;;3.47;;
67747;SDS011;54543;50.712;6.070;2023-03-11T08:43:46;5.15;;;3.03;;
67747;SDS011;54543;50.712;6.070;2023-03-11T08:46:23;4.68;;;2.85;;
67747;SDS011;54543;50.712;6.070;2023-03-11T08:48:51;5.07;;;3.20;;
67747;SDS011;54543;50.712;6.070;2023-03-11T08:51:17;6.28;;;3.30;;
67747;SDS011;54543;50.712;6.070;2023-03-11T08:53:44;4.95;;;3.05;;
67747;SDS011;54543;50.712;6.070;2023-03-11T08:56:10;4.50;;;2.78;;
67747;SDS011;54543;50.712;6.070;2023-03-11T08:58:35;7.35;;;3.22;;
67747;SDS011;54543;50.712;6.070;2023-03-11T09:01:01;6.95;;;3.50;;
67747;SDS011;54543;50.712;6.070;2023-03-11T09:03:29;5.32;;;2.70;;
67747;SDS011;54543;50.712;6.070;2023-03-11T09:05:56;5.88;;;2.70;;
67747;SDS011;54543;50.712;6.070;2023-03-11T09:08:26;5.07;;;2.80;;
67747;SDS011;54543;50.712;6.070;2023-03-11T09:10:52;4.82;;;2.47;;
67747;SDS011;54543;50.712;6.070;2023-03-11T09:13:17;5.13;;;2.70;;
67747;SDS011;54543;50.712;6.070;2023-03-11T09:15:43;6.65;;;2.88;;
67747;SDS011;54543;50.712;6.070;2023-03-11T09:18:12;6.15;;;2.60;;
67747;SDS011;54543;50.712;6.070;2023-03-11T09:20:39;4.45;;;3.05;;
67747;SDS011;54543;50.712;6.070;2023-03-11T09:23:05;6.47;;;2.92;;
67747;SDS011;54543;50.712;6.070;2023-03-11T09:25:30;14.25;;;3.00;;
67747;SDS011;54543;50.712;6.070;2023-03-11T09:27:56;3.55;;;2.05;;
67747;SDS011;54543;50.712;6.070;2023-03-11T09:30:22;4.30;;;2.72;;
67747;SDS011;54543;50.712;6.070;2023-03-11T09:32:48;7.43;;;3.25;;
67747;SDS011;54543;50.712;6.070;2023-03-11T09:35:14;4.88;;;2.70;;
67747;SDS011;54543;50.712;6.070;2023-03-11T09:37:40;3.03;;;1.98;;
67747;SDS011;54543;50.712;6.070;2023-03-11T09:40:05;4.18;;;2.00;;
67747;SDS011;54543;50.712;6.070;2023-03-11T09:45:18;3.88;;;1.88;;
67747;SDS011;54543;50.712;6.070;2023-03-11T09:50:46;4.22;;;1.40;;
67747;SDS011;54543;50.712;6.070;2023-03-11T09:55:59;2.42;;;1.45;;
67747;SDS011;54543;50.712;6.070;2023-03-11T09:59:08;1.55;;;1.20;;
67747;SDS011;54543;50.712;6.070;2023-03-11T10:04:01;2.15;;;1.25;;
67747;SDS011;54543;50.712;6.070;2023-03-11T10:06:32;1.52;;;1.10;;
67747;SDS011;54543;50.712;6.070;2023-03-11T10:14:28;1.65;;;1.20;;
67747;SDS011;54543;50.712;6.070;2023-03-11T10:17:14;3.70;;;1.70;;
67747;SDS011;54543;50.712;6.070;2023-03-11T10:20:05;1.55;;;1.10;;
67747;SDS011;54543;50.712;6.070;2023-03-11T10:23:03;2.63;;;1.00;;
67747;SDS011;54543;50.712;6.070;2023-03-11T10:28:47;2.00;;;0.75;;
67747;SDS011;54543;50.712;6.070;2023-03-11T10:33:49;3.45;;;1.10;;
67747;SDS011;54543;50.712;6.070;2023-03-11T10:36:19;3.00;;;1.10;;
67747;SDS011;54543;50.712;6.070;2023-03-11T10:38:49;2.08;;;0.90;;
67747;SDS011;54543;50.712;6.070;2023-03-11T10:41:18;1.13;;;0.82;;
67747;SDS011;54543;50.712;6.070;2023-03-11T10:46:44;1.27;;;0.80;;
67747;SDS011;54543;50.712;6.070;2023-03-11T10:49:13;1.02;;;0.60;;
67747;SDS011;54543;50.712;6.070;2023-03-11T10:51:40;2.15;;;1.10;;
67747;SDS011;54543;50.712;6.070;2023-03-11T10:54:08;2.10;;;0.90;;
67747;SDS011;54543;50.712;6.070;2023-03-11T10:56:56;1.80;;;0.90;;
67747;SDS011;54543;50.712;6.070;2023-03-11T10:59:24;2.17;;;0.90;;
67747;SDS011;54543;50.712;6.070;2023-03-11T11:02:00;1.23;;;0.60;;
67747;SDS011;54543;50.712;6.070;2023-03-11T11:04:28;1.17;;;0.70;;
67747;SDS011;54543;50.712;6.070;2023-03-11T11:07:19;1.45;;;0.80;;
67747;SDS011;54543;50.712;6.070;2023-03-11T11:15:28;5.03;;;3.47;;
67747;SDS011;54543;50.712;6.070;2023-03-11T11:18:02;2.10;;;1.70;;
67747;SDS011;54543;50.712;6.070;2023-03-11T11:21:05;3.78;;;1.60;;
67747;SDS011;54543;50.712;6.070;2023-03-11T11:23:36;3.20;;;1.55;;
67747;SDS011;54543;50.712;6.070;2023-03-11T11:31:38;3.00;;;1.90;;
67747;SDS011;54543;50.712;6.070;2023-03-11T11:36:48;2.40;;;1.45;;
67747;SDS011;54543;50.712;6.070;2023-03-11T11:39:15;2.22;;;1.23;;
67747;SDS011;54543;50.712;6.070;2023-03-11T11:41:44;4.38;;;1.55;;
67747;SDS011;54543;50.712;6.070;2023-03-11T11:44:13;1.77;;;1.15;;
67747;SDS011;54543;50.712;6.070;2023-03-11T11:46:45;1.63;;;0.95;;
67747;SDS011;54543;50.712;6.070;2023-03-11T11:56:54;2.45;;;1.17;;
67747;SDS011;54543;50.712;6.070;2023-03-11T11:59:21;5.10;;;1.70;;
67747;SDS011;54543;50.712;6.070;2023-03-11T12:10:32;1.90;;;1.27;;
67747;SDS011;54543;50.712;6.070;2023-03-11T12:16:22;2.25;;;1.52;;
67747;SDS011;54543;50.712;6.070;2023-03-11T12:18:36;1.75;;;1.30;;
67747;SDS011;54543;50.712;6.070;2023-03-11T12:24:39;2.70;;;1.35;;
67747;SDS011;54543;50.712;6.070;2023-03-11T12:27:04;1.60;;;1.05;;
67747;SDS011;54543;50.712;6.070;2023-03-11T12:29:40;4.40;;;1.30;;
67747;SDS011;54543;50.712;6.070;2023-03-11T12:32:19;3.00;;;1.15;;
67747;SDS011;54543;50.712;6.070;2023-03-11T12:35:00;1.65;;;1.25;;
67747;SDS011;54543;50.712;6.070;2023-03-11T12:37:28;3.88;;;1.83;;
67747;SDS011;54543;50.712;6.070;2023-03-11T12:39:54;3.83;;;1.00;;
67747;SDS011;54543;50.712;6.070;2023-03-11T12:42:21;2.85;;;0.95;;
67747;SDS011;54543;50.712;6.070;2023-03-11T12:44:50;22.55;;;8.63;;
67747;SDS011;54543;50.712;6.070;2023-03-11T12:47:19;17.48;;;7.88;;
67747;SDS011;54543;50.712;6.070;2023-03-11T12:49:47;21.33;;;10.10;;
67747;SDS011;54543;50.712;6.070;2023-03-11T12:52:23;11.75;;;6.30;;
67747;SDS011;54543;50.712;6.070;2023-03-11T13:05:31;31.85;;;12.35;;
67747;SDS011;54543;50.712;6.070;2023-03-11T13:08:13;10.70;;;5.45;;
67747;SDS011;54543;50.712;6.070;2023-03-11T13:10:52;16.00;;;11.02;;
67747;SDS011;54543;50.712;6.070;2023-03-11T13:15:47;6.20;;;3.08;;
67747;SDS011;54543;50.712;6.070;2023-03-11T13:18:15;5.60;;;2.42;;
67747;SDS011;54543;50.712;6.070;2023-03-11T13:20:46;6.22;;;2.22;;
67747;SDS011;54543;50.712;6.070;2023-03-11T13:33:54;2.45;;;1.30;;
67747;SDS011;54543;50.712;6.070;2023-03-11T13:36:35;2.45;;;1.70;;
67747;SDS011;54543;50.712;6.070;2023-03-11T13:39:33;3.10;;;1.50;;
67747;SDS011;54543;50.712;6.070;2023-03-11T13:42:22;3.67;;;1.75;;
67747;SDS011;54543;50.712;6.070;2023-03-11T13:44:54;5.35;;;2.28;;
67747;SDS011;54543;50.712;6.070;2023-03-11T13:47:21;3.00;;;1.60;;
67747;SDS011;54543;50.712;6.070;2023-03-11T13:49:52;5.63;;;3.42;;
67747;SDS011;54543;50.712;6.070;2023-03-11T13:52:25;3.45;;;2.00;;
67747;SDS011;54543;50.712;6.070;2023-03-11T13:55:04;3.45;;;1.90;;
67747;SDS011;54543;50.712;6.070;2023-03-11T13:57:48;3.03;;;1.98;;
67747;SDS011;54543;50.712;6.070;2023-03-11T14:00:17;3.30;;;1.88;;
67747;SDS011;54543;50.712;6.070;2023-03-11T14:05:48;5.40;;;3.83;;
67747;SDS011;54543;50.712;6.070;2023-03-11T14:08:35;6.38;;;3.60;;
67747;SDS011;54543;50.712;6.070;2023-03-11T14:16:30;4.65;;;2.65;;
67747;SDS011;54543;50.712;6.070;2023-03-11T14:21:28;4.03;;;2.05;;
67747;SDS011;54543;50.712;6.070;2023-03-11T14:23:55;3.35;;;1.50;;
67747;SDS011;54543;50.712;6.070;2023-03-11T14:26:22;1.55;;;1.38;;
67747;SDS011;54543;50.712;6.070;2023-03-11T14:28:51;4.93;;;1.80;;
67747;SDS011;54543;50.712;6.070;2023-03-11T14:33:55;2.72;;;1.60;;
67747;SDS011;54543;50.712;6.070;2023-03-11T14:36:29;1.73;;;1.30;;
67747;SDS011;54543;50.712;6.070;2023-03-11T14:38:56;11.00;;;3.65;;
67747;SDS011;54543;50.712;6.070;2023-03-11T14:41:22;5.65;;;1.83;;
67747;SDS011;54543;50.712;6.070;2023-03-11T14:43:48;2.42;;;1.75;;
67747;SDS011;54543;50.712;6.070;2023-03-11T14:46:19;2.08;;;1.50;;
67747;SDS011;54543;50.712;6.070;2023-03-11T14:48:49;2.72;;;1.65;;
67747;SDS011;54543;50.712;6.070;2023-03-11T14:51:17;3.47;;;1.50;;
67747;SDS011;54543;50.712;6.070;2023-03-11T14:54:29;1.92;;;1.10;;
67747;SDS011;54543;50.712;6.070;2023-03-11T14:56:46;1.40;;;1.30;;
67747;SDS011;54543;50.712;6.070;2023-03-11T14:59:26;2.35;;;1.40;;
67747;SDS011;54543;50.712;6.070;2023-03-11T15:01:57;2.97;;;1.40;;
67747;SDS011;54543;50.712;6.070;2023-03-11T15:04:43;3.45;;;1.65;;
67747;SDS011;54543;50.712;6.070;2023-03-11T15:07:09;4.35;;;1.80;;
67747;SDS011;54543;50.712;6.070;2023-03-11T15:09:37;2.05;;;1.42;;
67747;SDS011;54543;50.712;6.070;2023-03-11T15:12:05;4.03;;;1.88;;
67747;SDS011;54543;50.712;6.070;2023-03-11T15:14:32;4.38;;;2.28;;
67747;SDS011;54543;50.712;6.070;2023-03-11T15:17:35;2.72;;;1.38;;
67747;SDS011;54543;50.712;6.070;2023-03-11T15:19:56;2.60;;;1.25;;
67747;SDS011;54543;50.712;6.070;2023-03-11T15:22:38;1.95;;;1.08;;
67747;SDS011;54543;50.712;6.070;2023-03-11T15:25:13;3.03;;;1.08;;
67747;SDS011;54543;50.712;6.070;2023-03-11T15:27:41;4.32;;;1.20;;
67747;SDS011;54543;50.712;6.070;2023-03-11T15:30:20;2.15;;;1.42;;
67747;SDS011;54543;50.712;6.070;2023-03-11T15:32:48;1.88;;;1.17;;
67747;SDS011;54543;50.712;6.070;2023-03-11T15:35:18;3.13;;;1.50;;
67747;SDS011;54543;50.712;6.070;2023-03-11T15:37:48;3.28;;;1.85;;
67747;SDS011;54543;50.712;6.070;2023-03-11T15:40:26;2.80;;;1.60;;
67747;SDS011;54543;50.712;6.070;2023-03-11T15:45:41;2.97;;;1.67;;
67747;SDS011;54543;50.712;6.070;2023-03-11T15:48:11;3.85;;;1.67;;
67747;SDS011;54543;50.712;6.070;2023-03-11T15:50:50;2.13;;;1.52;;
67747;SDS011;54543;50.712;6.070;2023-03-11T15:53:18;8.05;;;3.70;;
67747;SDS011;54543;50.712;6.070;2023-03-11T15:55:44;5.68;;;2.20;;
67747;SDS011;54543;50.712;6.070;2023-03-11T15:58:14;3.30;;;1.90;;
67747;SDS011;54543;50.712;6.070;2023-03-11T16:00:44;4.10;;;1.80;;
67747;SDS011;54543;50.712;6.070;2023-03-11T16:03:12;2.10;;;1.30;;
67747;SDS011;54543;50.712;6.070;2023-03-11T16:05:37;3.05;;;1.50;;
67747;SDS011;54543;50.712;6.070;2023-03-11T16:08:03;3.28;;;1.52;;
67747;SDS011;54543;50.712;6.070;2023-03-11T16:10:29;4.65;;;2.20;;
67747;SDS011;54543;50.712;6.070;2023-03-11T16:12:54;5.13;;;2.55;;
67747;SDS011;54543;50.712;6.070;2023-03-11T16:15:22;3.42;;;1.92;;
67747;SDS011;54543;50.712;6.070;2023-03-11T16:17:56;5.65;;;2.35;;
67747;SDS011;54543;50.712;6.070;2023-03-11T16:20:24;5.88;;;3.05;;
67747;SDS011;54543;50.712;6.070;2023-03-11T16:22:54;5.72;;;2.10;;
67747;SDS011;54543;50.712;6.070;2023-03-11T16:27:52;3.15;;;1.60;;
67747;SDS011;54543;50.712;6.070;2023-03-11T16:30:18;2.63;;;1.50;;
67747;SDS011;54543;50.712;6.070;2023-03-11T16:32:44;5.18;;;1.40;;
67747;SDS011;54543;50.712;6.070;2023-03-11T16:35:10;2.28;;;1.30;;
67747;SDS011;54543;50.712;6.070;2023-03-11T16:37:36;3.03;;;1.60;;
67747;SDS011;54543;50.712;6.070;2023-03-11T16:40:03;2.30;;;1.50;;
67747;SDS011;54543;50.712;6.070;2023-03-11T16:42:31;3.17;;;1.75;;
67747;SDS011;54543;50.712;6.070;2023-03-11T16:44:57;2.28;;;1.30;;
67747;SDS011;54543;50.712;6.070;2023-03-11T16:47:23;1.95;;;1.38;;
67747;SDS011;54543;50.712;6.070;2023-03-11T16:49:49;2.28;;;1.42;;